sensor_id;sensor_type;location;lat;lon;timestamp;temperature;humidity
40153;DHT22;26371;56.992;23.912;2023-08-24T01:42:45;15.10;99.90
40153;DHT22;26371;56.992;23.912;2023-08-24T01:45:15;15.20;99.90
40153;DHT22;26371;56.992;23.912;2023-08-24T01:47:45;15.10;99.90
40153;DHT22;26371;56.992;23.912;2023-08-24T05:31:06;15.80;99.90
40153;DHT22;26371;56.992;23.912;2023-08-24T05:33:34;16.00;99.90
40153;DHT22;26371;56.992;23.912;2023-08-24T05:36:03;16.00;99.90
40153;DHT22;26371;56.992;23.912;2023-08-24T05:38:32;16.00;99.90
40153;DHT22;26371;56.992;23.912;2023-08-24T05:41:00;16.00;99.90
40153;DHT22;26371;56.992;23.912;2023-08-24T05:43:29;16.00;99.90
40153;DHT22;26371;56.992;23.912;2023-08-24T05:45:57;16.00;99.90
40153;DHT22;26371;56.992;23.912;2023-08-24T05:48:27;16.00;99.90
40153;DHT22;26371;56.992;23.912;2023-08-24T05:50:59;16.00;99.90
40153;DHT22;26371;56.992;23.912;2023-08-24T05:53:27;16.00;99.90
40153;DHT22;26371;56.992;23.912;2023-08-24T05:55:59;16.00;99.90
40153;DHT22;26371;56.992;23.912;2023-08-24T05:58:27;16.10;99.90
40153;DHT22;26371;56.992;23.912;2023-08-24T06:00:56;16.10;99.90
40153;DHT22;26371;56.992;23.912;2023-08-24T06:03:25;16.10;99.90
40153;DHT22;26371;56.992;23.912;2023-08-24T06:05:55;16.20;99.90
40153;DHT22;26371;56.992;23.912;2023-08-24T06:08:28;16.20;99.90
40153;DHT22;26371;56.992;23.912;2023-08-24T06:10:57;16.20;99.90
40153;DHT22;26371;56.992;23.912;2023-08-24T06:13:26;16.20;99.90
40153;DHT22;26371;56.992;23.912;2023-08-24T06:15:54;16.20;99.90
40153;DHT22;26371;56.992;23.912;2023-08-24T06:18:22;16.20;99.90
40153;DHT22;26371;56.992;23.912;2023-08-24T06:20:51;16.20;99.90
40153;DHT22;26371;56.992;23.912;2023-08-24T06:23:21;16.30;99.90
40153;DHT22;26371;56.992;23.912;2023-08-24T06:25:49;16.30;99.90
40153;DHT22;26371;56.992;23.912;2023-08-24T06:28:18;16.40;99.90
40153;DHT22;26371;56.992;23.912;2023-08-24T06:43:14;16.90;99.90
40153;DHT22;26371;56.992;23.912;2023-08-24T06:45:43;16.90;99.90
40153;DHT22;26371;56.992;23.912;2023-08-24T06:48:12;16.90;99.90
40153;DHT22;26371;56.992;23.912;2023-08-24T06:50:40;17.00;99.90
40153;DHT22;26371;56.992;23.912;2023-08-24T06:53:09;17.00;99.90
40153;DHT22;26371;56.992;23.912;2023-08-24T06:55:37;17.00;99.90
40153;DHT22;26371;56.992;23.912;2023-08-24T06:58:06;17.30;99.90
40153;DHT22;26371;56.992;23.912;2023-08-24T07:00:36;17.20;99.90
40153;DHT22;26371;56.992;23.912;2023-08-24T07:03:04;17.20;99.90
40153;DHT22;26371;56.992;23.912;2023-08-24T07:05:33;17.30;99.90
40153;DHT22;26371;56.992;23.912;2023-08-24T08:07:48;18.20;99.90
40153;DHT22;26371;56.992;23.912;2023-08-24T08:10:17;18.20;99.90
40153;DHT22;26371;56.992;23.912;2023-08-24T08:12:47;18.20;99.90
40153;DHT22;26371;56.992;23.912;2023-08-24T08:15:17;18.30;99.90
40153;DHT22;26371;56.992;23.912;2023-08-24T08:17:50;18.40;99.90
40153;DHT22;26371;56.992;23.912;2023-08-24T08:20:21;18.50;99.90
40153;DHT22;26371;56.992;23.912;2023-08-24T08:22:51;18.60;99.90
40153;DHT22;26371;56.992;23.912;2023-08-24T08:25:19;18.70;99.90
40153;DHT22;26371;56.992;23.912;2023-08-24T08:27:49;18.70;99.90
40153;DHT22;26371;56.992;23.912;2023-08-24T08:30:18;18.70;99.90
40153;DHT22;26371;56.992;23.912;2023-08-24T08:32:47;18.70;99.90
40153;DHT22;26371;56.992;23.912;2023-08-24T08:35:19;18.70;99.90
40153;DHT22;26371;56.992;23.912;2023-08-24T08:37:47;18.80;99.90
40153;DHT22;26371;56.992;23.912;2023-08-24T08:40:20;18.80;99.90
40153;DHT22;26371;56.992;23.912;2023-08-24T08:42:51;18.80;99.90
40153;DHT22;26371;56.992;23.912;2023-08-24T08:45:20;18.80;99.90
40153;DHT22;26371;56.992;23.912;2023-08-24T08:47:53;18.80;99.90
40153;DHT22;26371;56.992;23.912;2023-08-24T08:50:24;18.80;99.90
40153;DHT22;26371;56.992;23.912;2023-08-24T08:52:57;18.90;99.90
40153;DHT22;26371;56.992;23.912;2023-08-24T08:55:27;18.90;99.90
40153;DHT22;26371;56.992;23.912;2023-08-24T08:57:56;19.00;99.90
40153;DHT22;26371;56.992;23.912;2023-08-24T09:00:25;19.10;99.90
40153;DHT22;26371;56.992;23.912;2023-08-24T09:02:54;19.10;99.90
40153;DHT22;26371;56.992;23.912;2023-08-24T09:05:25;19.20;99.90
40153;DHT22;26371;56.992;23.912;2023-08-24T09:07:54;19.20;99.90
40153;DHT22;26371;56.992;23.912;2023-08-24T09:10:23;19.30;99.90
40153;DHT22;26371;56.992;23.912;2023-08-24T09:12:53;19.40;99.90
40153;DHT22;26371;56.992;23.912;2023-08-24T09:15:24;19.40;99.90
40153;DHT22;26371;56.992;23.912;2023-08-24T09:17:56;19.50;99.90
40153;DHT22;26371;56.992;23.912;2023-08-24T09:20:27;19.60;99.90
40153;DHT22;26371;56.992;23.912;2023-08-24T09:22:55;19.60;99.90
40153;DHT22;26371;56.992;23.912;2023-08-24T09:25:27;19.70;99.90
40153;DHT22;26371;56.992;23.912;2023-08-24T09:28:00;19.70;99.90
40153;DHT22;26371;56.992;23.912;2023-08-24T09:30:30;19.70;99.90
40153;DHT22;26371;56.992;23.912;2023-08-24T09:33:02;19.70;99.90
40153;DHT22;26371;56.992;23.912;2023-08-24T09:35:33;19.70;99.90
40153;DHT22;26371;56.992;23.912;2023-08-24T09:38:15;19.70;99.90
40153;DHT22;26371;56.992;23.912;2023-08-24T09:43:15;19.90;99.90
40153;DHT22;26371;56.992;23.912;2023-08-24T09:45:47;20.10;99.90
40153;DHT22;26371;56.992;23.912;2023-08-24T09:48:16;20.30;99.90
40153;DHT22;26371;56.992;23.912;2023-08-24T09:50:45;20.30;99.90
40153;DHT22;26371;56.992;23.912;2023-08-24T09:53:15;20.20;99.90
40153;DHT22;26371;56.992;23.912;2023-08-24T09:55:46;20.10;99.90
40153;DHT22;26371;56.992;23.912;2023-08-24T09:58:18;20.00;99.90
40153;DHT22;26371;56.992;23.912;2023-08-24T10:00:46;19.90;99.90
40153;DHT22;26371;56.992;23.912;2023-08-24T10:03:17;19.80;99.90
40153;DHT22;26371;56.992;23.912;2023-08-24T10:05:49;19.70;99.90
40153;DHT22;26371;56.992;23.912;2023-08-24T10:08:28;19.60;99.90
40153;DHT22;26371;56.992;23.912;2023-08-24T10:10:57;19.50;99.90
40153;DHT22;26371;56.992;23.912;2023-08-24T10:13:29;19.50;99.90
40153;DHT22;26371;56.992;23.912;2023-08-24T10:16:00;19.50;99.90
40153;DHT22;26371;56.992;23.912;2023-08-24T10:18:30;19.50;99.90
40153;DHT22;26371;56.992;23.912;2023-08-24T10:20:58;19.50;99.90
40153;DHT22;26371;56.992;23.912;2023-08-24T10:23:28;19.60;99.90
40153;DHT22;26371;56.992;23.912;2023-08-24T10:25:57;19.60;99.90
40153;DHT22;26371;56.992;23.912;2023-08-24T10:28:26;19.60;99.90
40153;DHT22;26371;56.992;23.912;2023-08-24T10:30:57;19.70;99.90
40153;DHT22;26371;56.992;23.912;2023-08-24T10:33:26;19.60;99.90
40153;DHT22;26371;56.992;23.912;2023-08-24T10:35:55;19.70;99.90
40153;DHT22;26371;56.992;23.912;2023-08-24T10:38:26;19.70;99.90
40153;DHT22;26371;56.992;23.912;2023-08-24T10:41:01;19.70;99.90
40153;DHT22;26371;56.992;23.912;2023-08-24T10:43:30;19.70;99.90
40153;DHT22;26371;56.992;23.912;2023-08-24T10:46:03;19.70;99.90
40153;DHT22;26371;56.992;23.912;2023-08-24T10:51:17;19.90;99.90
40153;DHT22;26371;56.992;23.912;2023-08-24T10:53:48;19.90;99.90
40153;DHT22;26371;56.992;23.912;2023-08-24T10:56:19;20.00;99.90
40153;DHT22;26371;56.992;23.912;2023-08-24T10:58:48;20.00;99.90
40153;DHT22;26371;56.992;23.912;2023-08-24T11:01:39;20.00;99.90
40153;DHT22;26371;56.992;23.912;2023-08-24T11:04:08;20.00;99.90
40153;DHT22;26371;56.992;23.912;2023-08-24T11:06:50;19.90;99.90
40153;DHT22;26371;56.992;23.912;2023-08-24T11:09:19;19.90;99.90
40153;DHT22;26371;56.992;23.912;2023-08-24T11:11:57;19.90;99.90
40153;DHT22;26371;56.992;23.912;2023-08-24T11:14:26;19.80;99.90
40153;DHT22;26371;56.992;23.912;2023-08-24T11:17:01;19.90;99.90
40153;DHT22;26371;56.992;23.912;2023-08-24T11:19:47;19.90;99.90
40153;DHT22;26371;56.992;23.912;2023-08-24T11:22:16;19.90;99.90
40153;DHT22;26371;56.992;23.912;2023-08-24T11:24:45;19.90;99.90
40153;DHT22;26371;56.992;23.912;2023-08-24T11:27:13;20.00;99.90
40153;DHT22;26371;56.992;23.912;2023-08-24T11:29:43;20.00;99.90
40153;DHT22;26371;56.992;23.912;2023-08-24T11:32:13;20.00;99.90
40153;DHT22;26371;56.992;23.912;2023-08-24T11:34:41;20.00;99.90
40153;DHT22;26371;56.992;23.912;2023-08-24T11:37:18;19.90;99.90
40153;DHT22;26371;56.992;23.912;2023-08-24T11:39:52;19.80;99.90
40153;DHT22;26371;56.992;23.912;2023-08-24T11:42:21;19.80;99.90
40153;DHT22;26371;56.992;23.912;2023-08-24T11:44:49;19.70;99.90
40153;DHT22;26371;56.992;23.912;2023-08-24T11:47:22;19.70;99.90
40153;DHT22;26371;56.992;23.912;2023-08-24T11:49:51;19.70;99.90
40153;DHT22;26371;56.992;23.912;2023-08-24T11:52:19;19.70;99.90
40153;DHT22;26371;56.992;23.912;2023-08-24T11:54:50;19.60;99.90
40153;DHT22;26371;56.992;23.912;2023-08-24T11:57:19;19.50;99.90
40153;DHT22;26371;56.992;23.912;2023-08-24T11:59:47;19.50;99.90
40153;DHT22;26371;56.992;23.912;2023-08-24T12:02:20;19.40;99.90
40153;DHT22;26371;56.992;23.912;2023-08-24T12:04:50;19.30;99.90
40153;DHT22;26371;56.992;23.912;2023-08-24T12:07:20;19.20;99.90
40153;DHT22;26371;56.992;23.912;2023-08-24T12:09:49;19.10;99.90
40153;DHT22;26371;56.992;23.912;2023-08-24T12:12:19;19.10;99.90
40153;DHT22;26371;56.992;23.912;2023-08-24T12:14:50;19.00;99.90
40153;DHT22;26371;56.992;23.912;2023-08-24T12:17:19;18.90;99.90
40153;DHT22;26371;56.992;23.912;2023-08-24T12:19:57;18.90;99.90
40153;DHT22;26371;56.992;23.912;2023-08-24T12:22:25;18.90;99.90
40153;DHT22;26371;56.992;23.912;2023-08-24T12:24:54;18.90;99.90
40153;DHT22;26371;56.992;23.912;2023-08-24T12:27:23;18.90;99.90
40153;DHT22;26371;56.992;23.912;2023-08-24T12:29:53;19.00;99.90
40153;DHT22;26371;56.992;23.912;2023-08-24T12:32:21;19.00;99.90
40153;DHT22;26371;56.992;23.912;2023-08-24T12:34:52;19.00;99.90
40153;DHT22;26371;56.992;23.912;2023-08-24T12:37:23;19.00;99.90
40153;DHT22;26371;56.992;23.912;2023-08-24T12:39:51;19.00;99.90
40153;DHT22;26371;56.992;23.912;2023-08-24T12:42:22;19.00;99.90
40153;DHT22;26371;56.992;23.912;2023-08-24T12:44:50;19.10;99.90
40153;DHT22;26371;56.992;23.912;2023-08-24T12:47:18;19.10;99.90
40153;DHT22;26371;56.992;23.912;2023-08-24T12:49:47;19.10;99.90
40153;DHT22;26371;56.992;23.912;2023-08-24T12:52:17;19.20;99.90
40153;DHT22;26371;56.992;23.912;2023-08-24T12:54:47;19.20;99.90
40153;DHT22;26371;56.992;23.912;2023-08-24T12:57:15;19.30;99.90
40153;DHT22;26371;56.992;23.912;2023-08-24T12:59:44;19.30;99.90
40153;DHT22;26371;56.992;23.912;2023-08-24T13:02:13;19.30;99.90
40153;DHT22;26371;56.992;23.912;2023-08-24T13:04:54;19.30;99.90
40153;DHT22;26371;56.992;23.912;2023-08-24T13:07:28;19.30;99.90
40153;DHT22;26371;56.992;23.912;2023-08-24T13:09:58;19.30;99.90
40153;DHT22;26371;56.992;23.912;2023-08-24T13:12:26;19.30;99.90
40153;DHT22;26371;56.992;23.912;2023-08-24T13:14:56;19.30;99.90
40153;DHT22;26371;56.992;23.912;2023-08-24T13:17:24;19.40;99.90
40153;DHT22;26371;56.992;23.912;2023-08-24T13:19:53;19.40;99.90
40153;DHT22;26371;56.992;23.912;2023-08-24T13:22:22;19.50;99.90
40153;DHT22;26371;56.992;23.912;2023-08-24T13:24:50;19.50;99.90
40153;DHT22;26371;56.992;23.912;2023-08-24T13:27:20;19.50;99.90
40153;DHT22;26371;56.992;23.912;2023-08-24T13:29:51;19.50;99.90
40153;DHT22;26371;56.992;23.912;2023-08-24T13:32:23;19.40;99.90
40153;DHT22;26371;56.992;23.912;2023-08-24T13:34:52;19.30;99.90
40153;DHT22;26371;56.992;23.912;2023-08-24T13:37:29;19.40;99.90
40153;DHT22;26371;56.992;23.912;2023-08-24T13:40:31;19.50;99.90
40153;DHT22;26371;56.992;23.912;2023-08-24T13:43:06;19.60;99.90
40153;DHT22;26371;56.992;23.912;2023-08-24T13:45:34;19.60;99.90
40153;DHT22;26371;56.992;23.912;2023-08-24T13:48:03;19.50;99.90
40153;DHT22;26371;56.992;23.912;2023-08-24T13:50:37;19.50;99.90
40153;DHT22;26371;56.992;23.912;2023-08-24T13:53:05;19.60;99.90
40153;DHT22;26371;56.992;23.912;2023-08-24T13:55:34;19.60;99.90
40153;DHT22;26371;56.992;23.912;2023-08-24T13:58:05;19.50;99.90
40153;DHT22;26371;56.992;23.912;2023-08-24T14:00:34;19.50;99.90
40153;DHT22;26371;56.992;23.912;2023-08-24T14:03:03;19.50;99.90
40153;DHT22;26371;56.992;23.912;2023-08-24T14:05:31;19.50;99.90
40153;DHT22;26371;56.992;23.912;2023-08-24T14:08:01;19.50;99.90
40153;DHT22;26371;56.992;23.912;2023-08-24T14:10:30;19.40;99.90
40153;DHT22;26371;56.992;23.912;2023-08-24T14:12:58;19.50;99.90
40153;DHT22;26371;56.992;23.912;2023-08-24T14:17:57;19.20;99.90
40153;DHT22;26371;56.992;23.912;2023-08-24T14:20:26;19.10;99.90
40153;DHT22;26371;56.992;23.912;2023-08-24T14:22:55;18.90;99.90
40153;DHT22;26371;56.992;23.912;2023-08-24T14:25:23;18.90;99.90
40153;DHT22;26371;56.992;23.912;2023-08-24T14:27:52;18.90;99.90
40153;DHT22;26371;56.992;23.912;2023-08-24T14:30:31;18.90;99.90
40153;DHT22;26371;56.992;23.912;2023-08-24T14:33:06;18.90;99.90
40153;DHT22;26371;56.992;23.912;2023-08-24T14:35:37;19.10;99.90
40153;DHT22;26371;56.992;23.912;2023-08-24T14:38:05;19.30;99.90
40153;DHT22;26371;56.992;23.912;2023-08-24T14:40:34;19.50;99.90
40153;DHT22;26371;56.992;23.912;2023-08-24T14:43:03;19.70;99.90
40153;DHT22;26371;56.992;23.912;2023-08-24T14:45:33;19.70;99.90
40153;DHT22;26371;56.992;23.912;2023-08-24T14:48:04;19.70;99.90
40153;DHT22;26371;56.992;23.912;2023-08-24T14:50:32;19.60;99.90
40153;DHT22;26371;56.992;23.912;2023-08-24T14:53:01;19.50;99.90
40153;DHT22;26371;56.992;23.912;2023-08-24T14:55:29;19.40;99.90
40153;DHT22;26371;56.992;23.912;2023-08-24T14:57:58;19.30;99.90
40153;DHT22;26371;56.992;23.912;2023-08-24T15:00:26;19.20;99.90
40153;DHT22;26371;56.992;23.912;2023-08-24T15:02:55;19.20;99.90
40153;DHT22;26371;56.992;23.912;2023-08-24T15:05:25;19.10;99.90
40153;DHT22;26371;56.992;23.912;2023-08-24T15:07:55;19.10;99.90
40153;DHT22;26371;56.992;23.912;2023-08-24T15:10:24;19.10;99.90
40153;DHT22;26371;56.992;23.912;2023-08-24T15:12:53;19.10;99.90
40153;DHT22;26371;56.992;23.912;2023-08-24T15:15:21;19.10;99.90
40153;DHT22;26371;56.992;23.912;2023-08-24T15:17:50;19.20;99.90
40153;DHT22;26371;56.992;23.912;2023-08-24T15:20:18;19.20;99.90
40153;DHT22;26371;56.992;23.912;2023-08-24T15:22:48;19.50;99.90
40153;DHT22;26371;56.992;23.912;2023-08-24T15:25:17;19.80;99.90
40153;DHT22;26371;56.992;23.912;2023-08-24T15:40:11;21.10;99.90
40153;DHT22;26371;56.992;23.912;2023-08-24T15:42:41;20.60;99.90
40153;DHT22;26371;56.992;23.912;2023-08-24T15:45:12;20.50;99.90
40153;DHT22;26371;56.992;23.912;2023-08-24T15:47:41;20.40;99.90
40153;DHT22;26371;56.992;23.912;2023-08-24T15:50:09;20.20;99.90
40153;DHT22;26371;56.992;23.912;2023-08-24T15:52:39;20.00;99.90
40153;DHT22;26371;56.992;23.912;2023-08-24T15:55:08;19.80;99.90
40153;DHT22;26371;56.992;23.912;2023-08-24T15:57:38;19.70;99.90
40153;DHT22;26371;56.992;23.912;2023-08-24T16:02:38;19.40;99.90
40153;DHT22;26371;56.992;23.912;2023-08-24T16:05:07;19.30;99.90
40153;DHT22;26371;56.992;23.912;2023-08-24T16:07:36;19.30;99.90
40153;DHT22;26371;56.992;23.912;2023-08-24T16:10:04;19.20;99.90
40153;DHT22;26371;56.992;23.912;2023-08-24T16:12:34;19.20;99.90
40153;DHT22;26371;56.992;23.912;2023-08-24T16:15:07;19.10;99.90
40153;DHT22;26371;56.992;23.912;2023-08-24T16:17:36;19.10;99.90
40153;DHT22;26371;56.992;23.912;2023-08-24T16:20:12;19.10;99.90
40153;DHT22;26371;56.992;23.912;2023-08-24T16:22:40;19.10;99.90
40153;DHT22;26371;56.992;23.912;2023-08-24T16:25:09;19.10;99.90
40153;DHT22;26371;56.992;23.912;2023-08-24T16:27:37;19.10;99.90
40153;DHT22;26371;56.992;23.912;2023-08-24T16:30:08;19.20;99.90
40153;DHT22;26371;56.992;23.912;2023-08-24T16:32:36;19.20;99.90
40153;DHT22;26371;56.992;23.912;2023-08-24T16:35:05;19.20;99.90
40153;DHT22;26371;56.992;23.912;2023-08-24T16:37:33;19.20;99.90
40153;DHT22;26371;56.992;23.912;2023-08-24T16:40:02;19.20;99.90
40153;DHT22;26371;56.992;23.912;2023-08-24T16:42:31;19.10;99.90
40153;DHT22;26371;56.992;23.912;2023-08-24T16:45:00;19.10;99.90
40153;DHT22;26371;56.992;23.912;2023-08-24T16:47:30;19.00;99.90
40153;DHT22;26371;56.992;23.912;2023-08-24T16:49:59;18.90;99.90
40153;DHT22;26371;56.992;23.912;2023-08-24T16:52:28;18.80;99.90
40153;DHT22;26371;56.992;23.912;2023-08-24T16:54:57;18.70;99.90
40153;DHT22;26371;56.992;23.912;2023-08-24T16:57:26;18.70;99.90
40153;DHT22;26371;56.992;23.912;2023-08-24T16:59:55;18.70;99.90
40153;DHT22;26371;56.992;23.912;2023-08-24T17:02:26;18.60;99.90
40153;DHT22;26371;56.992;23.912;2023-08-24T17:05:18;18.60;99.90
40153;DHT22;26371;56.992;23.912;2023-08-24T17:08:00;18.60;99.90
40153;DHT22;26371;56.992;23.912;2023-08-24T17:10:30;18.60;99.90
40153;DHT22;26371;56.992;23.912;2023-08-24T17:12:59;18.60;99.90
40153;DHT22;26371;56.992;23.912;2023-08-24T17:15:28;18.60;99.90
40153;DHT22;26371;56.992;23.912;2023-08-24T17:18:01;18.60;99.90
40153;DHT22;26371;56.992;23.912;2023-08-24T17:20:37;18.60;99.90
40153;DHT22;26371;56.992;23.912;2023-08-24T17:23:07;18.60;99.90
40153;DHT22;26371;56.992;23.912;2023-08-24T17:25:37;18.60;99.90
40153;DHT22;26371;56.992;23.912;2023-08-24T17:28:06;18.50;99.90
40153;DHT22;26371;56.992;23.912;2023-08-24T17:30:35;18.50;99.90
40153;DHT22;26371;56.992;23.912;2023-08-24T17:33:03;18.50;99.90
40153;DHT22;26371;56.992;23.912;2023-08-24T17:35:32;18.50;99.90
40153;DHT22;26371;56.992;23.912;2023-08-24T17:38:04;18.40;99.90
40153;DHT22;26371;56.992;23.912;2023-08-24T17:40:33;18.40;99.90
40153;DHT22;26371;56.992;23.912;2023-08-24T17:43:03;18.40;99.90
40153;DHT22;26371;56.992;23.912;2023-08-24T17:45:31;18.30;99.90
40153;DHT22;26371;56.992;23.912;2023-08-24T17:48:00;18.30;99.90
40153;DHT22;26371;56.992;23.912;2023-08-24T17:50:28;18.30;99.90
40153;DHT22;26371;56.992;23.912;2023-08-24T17:52:57;18.30;99.90
40153;DHT22;26371;56.992;23.912;2023-08-24T18:52:45;17.80;99.90
40153;DHT22;26371;56.992;23.912;2023-08-24T18:55:14;17.80;99.90
40153;DHT22;26371;56.992;23.912;2023-08-24T18:57:42;17.70;99.90
40153;DHT22;26371;56.992;23.912;2023-08-24T19:00:11;17.60;99.90
40153;DHT22;26371;56.992;23.912;2023-08-24T19:02:40;17.60;99.90
40153;DHT22;26371;56.992;23.912;2023-08-24T19:05:08;17.50;99.90
40153;DHT22;26371;56.992;23.912;2023-08-24T19:07:37;17.50;99.90
40153;DHT22;26371;56.992;23.912;2023-08-24T19:10:07;17.40;99.90
40153;DHT22;26371;56.992;23.912;2023-08-24T19:12:36;17.40;99.90
40153;DHT22;26371;56.992;23.912;2023-08-24T19:15:06;17.40;99.90
40153;DHT22;26371;56.992;23.912;2023-08-24T19:17:35;17.30;99.90
40153;DHT22;26371;56.992;23.912;2023-08-24T19:20:03;17.30;99.90
40153;DHT22;26371;56.992;23.912;2023-08-24T19:22:35;17.20;99.90
40153;DHT22;26371;56.992;23.912;2023-08-24T19:25:04;17.10;99.90
40153;DHT22;26371;56.992;23.912;2023-08-24T19:27:38;17.10;99.90
40153;DHT22;26371;56.992;23.912;2023-08-24T19:30:22;17.10;99.90
40153;DHT22;26371;56.992;23.912;2023-08-24T19:32:50;17.10;99.90
40153;DHT22;26371;56.992;23.912;2023-08-24T19:35:19;17.10;99.90
40153;DHT22;26371;56.992;23.912;2023-08-24T19:37:47;17.00;99.90
40153;DHT22;26371;56.992;23.912;2023-08-24T19:40:17;17.00;99.90
40153;DHT22;26371;56.992;23.912;2023-08-24T19:42:46;17.00;99.90
40153;DHT22;26371;56.992;23.912;2023-08-24T19:45:15;16.90;99.90
40153;DHT22;26371;56.992;23.912;2023-08-24T19:47:44;16.90;99.90
40153;DHT22;26371;56.992;23.912;2023-08-24T19:50:13;16.80;99.90
40153;DHT22;26371;56.992;23.912;2023-08-24T19:52:41;16.80;99.90
40153;DHT22;26371;56.992;23.912;2023-08-24T19:55:14;16.70;99.90
40153;DHT22;26371;56.992;23.912;2023-08-24T19:57:50;16.70;99.90
40153;DHT22;26371;56.992;23.912;2023-08-24T20:00:22;16.70;99.90
40153;DHT22;26371;56.992;23.912;2023-08-24T20:02:51;16.70;99.90
40153;DHT22;26371;56.992;23.912;2023-08-24T20:05:21;16.70;99.90
40153;DHT22;26371;56.992;23.912;2023-08-24T20:07:50;16.70;99.90
40153;DHT22;26371;56.992;23.912;2023-08-24T20:10:28;16.70;99.90
40153;DHT22;26371;56.992;23.912;2023-08-24T20:13:08;16.70;99.90
40153;DHT22;26371;56.992;23.912;2023-08-24T20:15:37;16.80;99.90
40153;DHT22;26371;56.992;23.912;2023-08-24T20:18:05;16.80;99.90
40153;DHT22;26371;56.992;23.912;2023-08-24T20:20:34;16.80;99.90
40153;DHT22;26371;56.992;23.912;2023-08-24T20:23:05;16.90;99.90
40153;DHT22;26371;56.992;23.912;2023-08-24T20:25:34;16.80;99.90
40153;DHT22;26371;56.992;23.912;2023-08-24T20:28:03;16.80;99.90
40153;DHT22;26371;56.992;23.912;2023-08-24T20:30:41;16.80;99.90
40153;DHT22;26371;56.992;23.912;2023-08-24T20:33:09;16.80;99.90
40153;DHT22;26371;56.992;23.912;2023-08-24T20:35:38;16.80;99.90
40153;DHT22;26371;56.992;23.912;2023-08-24T20:38:07;16.80;99.90
40153;DHT22;26371;56.992;23.912;2023-08-24T20:40:36;16.80;99.90
40153;DHT22;26371;56.992;23.912;2023-08-24T20:43:05;16.80;99.90
40153;DHT22;26371;56.992;23.912;2023-08-24T20:45:34;16.80;99.90
40153;DHT22;26371;56.992;23.912;2023-08-24T20:48:05;16.80;99.90
40153;DHT22;26371;56.992;23.912;2023-08-24T20:50:35;16.80;99.90
40153;DHT22;26371;56.992;23.912;2023-08-24T20:53:04;16.70;99.90
40153;DHT22;26371;56.992;23.912;2023-08-24T20:55:34;16.70;99.90
40153;DHT22;26371;56.992;23.912;2023-08-24T20:58:03;16.60;99.90
40153;DHT22;26371;56.992;23.912;2023-08-24T21:00:31;16.60;99.90
40153;DHT22;26371;56.992;23.912;2023-08-24T21:03:02;16.50;99.90
40153;DHT22;26371;56.992;23.912;2023-08-24T21:05:33;16.50;99.90
40153;DHT22;26371;56.992;23.912;2023-08-24T21:08:03;16.40;99.90
40153;DHT22;26371;56.992;23.912;2023-08-24T21:10:32;16.40;99.90
40153;DHT22;26371;56.992;23.912;2023-08-24T21:13:01;16.30;99.90
40153;DHT22;26371;56.992;23.912;2023-08-24T21:15:29;16.30;99.90
40153;DHT22;26371;56.992;23.912;2023-08-24T21:17:58;16.30;99.90
40153;DHT22;26371;56.992;23.912;2023-08-24T21:20:27;16.30;99.90
40153;DHT22;26371;56.992;23.912;2023-08-24T21:22:57;16.20;99.90
40153;DHT22;26371;56.992;23.912;2023-08-24T21:25:28;16.20;99.90
40153;DHT22;26371;56.992;23.912;2023-08-24T21:27:57;16.20;99.90
40153;DHT22;26371;56.992;23.912;2023-08-24T21:30:25;16.20;99.90
40153;DHT22;26371;56.992;23.912;2023-08-24T21:32:54;16.10;99.90
40153;DHT22;26371;56.992;23.912;2023-08-24T21:35:23;16.10;99.90
40153;DHT22;26371;56.992;23.912;2023-08-24T21:37:51;16.10;99.90
40153;DHT22;26371;56.992;23.912;2023-08-24T21:40:21;16.10;99.90
40153;DHT22;26371;56.992;23.912;2023-08-24T21:42:50;16.00;99.90
40153;DHT22;26371;56.992;23.912;2023-08-24T21:45:18;16.00;99.90
40153;DHT22;26371;56.992;23.912;2023-08-24T21:47:47;16.00;99.90
40153;DHT22;26371;56.992;23.912;2023-08-24T21:50:26;16.00;99.90
40153;DHT22;26371;56.992;23.912;2023-08-24T21:53:04;15.90;99.90
40153;DHT22;26371;56.992;23.912;2023-08-24T21:55:37;15.90;99.90
40153;DHT22;26371;56.992;23.912;2023-08-24T21:58:05;15.80;99.90
40153;DHT22;26371;56.992;23.912;2023-08-24T22:00:34;15.80;99.90
40153;DHT22;26371;56.992;23.912;2023-08-24T22:03:03;15.80;99.90
40153;DHT22;26371;56.992;23.912;2023-08-24T22:05:32;15.90;99.90
40153;DHT22;26371;56.992;23.912;2023-08-24T22:08:01;15.80;99.90
40153;DHT22;26371;56.992;23.912;2023-08-24T22:10:38;15.80;99.90
40153;DHT22;26371;56.992;23.912;2023-08-24T22:13:10;15.80;99.90
40153;DHT22;26371;56.992;23.912;2023-08-24T22:15:41;15.80;99.90
40153;DHT22;26371;56.992;23.912;2023-08-24T22:18:10;15.70;99.90
40153;DHT22;26371;56.992;23.912;2023-08-24T22:20:39;15.70;99.90
40153;DHT22;26371;56.992;23.912;2023-08-24T22:23:08;15.70;99.90
40153;DHT22;26371;56.992;23.912;2023-08-24T22:25:36;15.70;99.90
40153;DHT22;26371;56.992;23.912;2023-08-24T22:28:07;15.70;99.90
40153;DHT22;26371;56.992;23.912;2023-08-24T22:30:36;15.70;99.90
40153;DHT22;26371;56.992;23.912;2023-08-24T22:33:04;15.60;99.90
40153;DHT22;26371;56.992;23.912;2023-08-24T22:35:35;15.60;99.90
40153;DHT22;26371;56.992;23.912;2023-08-24T22:38:04;15.60;99.90
40153;DHT22;26371;56.992;23.912;2023-08-24T22:40:32;15.50;99.90
40153;DHT22;26371;56.992;23.912;2023-08-24T22:43:01;15.50;99.90
40153;DHT22;26371;56.992;23.912;2023-08-24T22:45:38;15.50;99.90
40153;DHT22;26371;56.992;23.912;2023-08-24T22:50:37;15.50;99.90
40153;DHT22;26371;56.992;23.912;2023-08-24T22:53:09;15.40;99.90
40153;DHT22;26371;56.992;23.912;2023-08-24T22:55:42;15.40;99.90
40153;DHT22;26371;56.992;23.912;2023-08-24T22:58:10;15.40;99.90
40153;DHT22;26371;56.992;23.912;2023-08-24T23:00:40;15.40;99.90
40153;DHT22;26371;56.992;23.912;2023-08-24T23:03:08;15.30;99.90
40153;DHT22;26371;56.992;23.912;2023-08-24T23:05:42;15.30;99.90
40153;DHT22;26371;56.992;23.912;2023-08-24T23:08:11;15.30;99.90
40153;DHT22;26371;56.992;23.912;2023-08-24T23:10:39;15.30;99.90
40153;DHT22;26371;56.992;23.912;2023-08-24T23:13:08;15.30;99.90
40153;DHT22;26371;56.992;23.912;2023-08-24T23:15:36;15.30;99.90
40153;DHT22;26371;56.992;23.912;2023-08-24T23:18:07;15.20;99.90
40153;DHT22;26371;56.992;23.912;2023-08-24T23:20:36;15.20;99.90
40153;DHT22;26371;56.992;23.912;2023-08-24T23:23:04;15.10;99.90
40153;DHT22;26371;56.992;23.912;2023-08-24T23:25:33;15.00;99.90
40153;DHT22;26371;56.992;23.912;2023-08-24T23:28:01;15.00;99.90
40153;DHT22;26371;56.992;23.912;2023-08-24T23:33:01;14.90;99.90